sensor_id;sensor_type;location;lat;lon;timestamp;pressure;altitude;pressure_sealevel;temperature;humidity
48624;BME280;34422;45.802;16.114;2022-08-07T00:01:11;100538.13;;;20.34;78.20
48624;BME280;34422;45.802;16.114;2022-08-07T00:03:38;100544.41;;;20.29;78.20
48624;BME280;34422;45.802;16.114;2022-08-07T00:06:05;100553.72;;;20.23;78.40
48624;BME280;34422;45.802;16.114;2022-08-07T00:08:32;100554.56;;;20.18;79.45
48624;BME280;34422;45.802;16.114;2022-08-07T00:10:59;100554.53;;;20.13;80.02
48624;BME280;34422;45.802;16.114;2022-08-07T00:13:26;100552.03;;;20.07;80.29
48624;BME280;34422;45.802;16.114;2022-08-07T00:15:53;100553.34;;;19.99;81.96
48624;BME280;34422;45.802;16.114;2022-08-07T00:18:23;100557.72;;;19.90;82.75
48624;BME280;34422;45.802;16.114;2022-08-07T00:20:51;100556.06;;;19.89;83.83
48624;BME280;34422;45.802;16.114;2022-08-07T00:23:18;100547.19;;;19.72;85.50
48624;BME280;34422;45.802;16.114;2022-08-07T00:25:45;100559.50;;;19.69;85.17
48624;BME280;34422;45.802;16.114;2022-08-07T00:28:12;100557.03;;;19.63;86.22
48624;BME280;34422;45.802;16.114;2022-08-07T00:30:39;100554.78;;;19.60;86.25
48624;BME280;34422;45.802;16.114;2022-08-07T00:33:06;100561.38;;;19.54;86.94
48624;BME280;34422;45.802;16.114;2022-08-07T00:35:33;100553.06;;;19.48;87.83
48624;BME280;34422;45.802;16.114;2022-08-07T00:38:00;100552.56;;;19.51;86.80
48624;BME280;34422;45.802;16.114;2022-08-07T00:40:28;100562.72;;;19.51;86.94
48624;BME280;34422;45.802;16.114;2022-08-07T00:42:56;100571.22;;;19.49;86.93
48624;BME280;34422;45.802;16.114;2022-08-07T00:45:23;100570.59;;;19.47;86.63
48624;BME280;34422;45.802;16.114;2022-08-07T00:47:50;100567.88;;;19.47;86.13
48624;BME280;34422;45.802;16.114;2022-08-07T00:50:16;100565.72;;;19.49;85.10
48624;BME280;34422;45.802;16.114;2022-08-07T00:52:44;100568.47;;;19.55;85.10
48624;BME280;34422;45.802;16.114;2022-08-07T00:55:10;100570.69;;;19.52;84.37
48624;BME280;34422;45.802;16.114;2022-08-07T00:57:38;100570.44;;;19.54;84.07
48624;BME280;34422;45.802;16.114;2022-08-07T01:00:06;100563.56;;;19.57;83.88
48624;BME280;34422;45.802;16.114;2022-08-07T01:02:33;100564.66;;;19.56;83.74
48624;BME280;34422;45.802;16.114;2022-08-07T01:05:03;100571.22;;;19.55;83.44
48624;BME280;34422;45.802;16.114;2022-08-07T01:07:32;100572.88;;;19.56;83.75
48624;BME280;34422;45.802;16.114;2022-08-07T01:09:58;100569.59;;;19.54;83.30
48624;BME280;34422;45.802;16.114;2022-08-07T01:12:26;100565.72;;;19.55;83.33
48624;BME280;34422;45.802;16.114;2022-08-07T01:14:53;100560.53;;;19.53;83.25
48624;BME280;34422;45.802;16.114;2022-08-07T01:17:23;100566.84;;;19.54;83.82
48624;BME280;34422;45.802;16.114;2022-08-07T01:19:50;100564.03;;;19.48;84.17
48624;BME280;34422;45.802;16.114;2022-08-07T01:22:19;100562.91;;;19.44;84.33
48624;BME280;34422;45.802;16.114;2022-08-07T01:24:48;100554.66;;;19.39;84.67
48624;BME280;34422;45.802;16.114;2022-08-07T01:27:15;100559.06;;;19.45;83.50
48624;BME280;34422;45.802;16.114;2022-08-07T01:29:41;100565.13;;;19.47;83.70
48624;BME280;34422;45.802;16.114;2022-08-07T01:32:09;100558.53;;;19.48;83.17
48624;BME280;34422;45.802;16.114;2022-08-07T01:34:35;100566.22;;;19.46;83.21
48624;BME280;34422;45.802;16.114;2022-08-07T01:37:03;100557.41;;;19.44;82.54
48624;BME280;34422;45.802;16.114;2022-08-07T01:39:30;100556.31;;;19.45;82.79
48624;BME280;34422;45.802;16.114;2022-08-07T01:41:57;100553.28;;;19.42;82.08
48624;BME280;34422;45.802;16.114;2022-08-07T01:44:24;100560.72;;;19.46;81.77
48624;BME280;34422;45.802;16.114;2022-08-07T01:46:51;100566.22;;;19.46;81.60
48624;BME280;34422;45.802;16.114;2022-08-07T01:49:18;100567.63;;;19.49;82.20
48624;BME280;34422;45.802;16.114;2022-08-07T01:51:45;100568.47;;;19.49;82.21
48624;BME280;34422;45.802;16.114;2022-08-07T01:54:14;100566.28;;;19.51;81.52
48624;BME280;34422;45.802;16.114;2022-08-07T01:56:47;100565.72;;;19.49;80.72
48624;BME280;34422;45.802;16.114;2022-08-07T01:59:21;100570.13;;;19.56;80.44
48624;BME280;34422;45.802;16.114;2022-08-07T02:01:55;100572.63;;;19.57;80.78
48624;BME280;34422;45.802;16.114;2022-08-07T02:04:29;100569.63;;;19.59;80.91
48624;BME280;34422;45.802;16.114;2022-08-07T02:06:58;100573.19;;;19.59;80.20
48624;BME280;34422;45.802;16.114;2022-08-07T02:09:28;100572.91;;;19.61;78.98
48624;BME280;34422;45.802;16.114;2022-08-07T02:11:57;100567.44;;;19.61;79.05
48624;BME280;34422;45.802;16.114;2022-08-07T02:14:25;100572.41;;;19.64;78.15
48624;BME280;34422;45.802;16.114;2022-08-07T02:16:54;100568.00;;;19.63;78.15
48624;BME280;34422;45.802;16.114;2022-08-07T02:19:22;100571.88;;;19.67;77.09
48624;BME280;34422;45.802;16.114;2022-08-07T02:21:51;100572.72;;;19.67;77.18
48624;BME280;34422;45.802;16.114;2022-08-07T02:24:20;100566.38;;;19.67;77.05
48624;BME280;34422;45.802;16.114;2022-08-07T02:26:48;100560.94;;;19.77;75.22
48624;BME280;34422;45.802;16.114;2022-08-07T02:29:15;100559.84;;;19.78;75.06
48624;BME280;34422;45.802;16.114;2022-08-07T02:31:43;100556.59;;;19.81;75.85
48624;BME280;34422;45.802;16.114;2022-08-07T02:34:11;100560.44;;;19.80;75.44
48624;BME280;34422;45.802;16.114;2022-08-07T02:36:39;100558.50;;;19.80;75.50
48624;BME280;34422;45.802;16.114;2022-08-07T02:39:07;100557.69;;;19.85;74.85
48624;BME280;34422;45.802;16.114;2022-08-07T02:41:34;100559.38;;;19.91;73.91
48624;BME280;34422;45.802;16.114;2022-08-07T02:44:02;100552.53;;;19.99;73.08
48624;BME280;34422;45.802;16.114;2022-08-07T02:46:30;100552.28;;;20.00;73.50
48624;BME280;34422;45.802;16.114;2022-08-07T02:48:59;100544.88;;;20.06;72.31
48624;BME280;34422;45.802;16.114;2022-08-07T02:51:26;100548.19;;;20.08;71.96
48624;BME280;34422;45.802;16.114;2022-08-07T02:53:55;100545.16;;;20.09;71.97
48624;BME280;34422;45.802;16.114;2022-08-07T02:56:24;100546.53;;;20.07;71.71
48624;BME280;34422;45.802;16.114;2022-08-07T02:58:53;100554.22;;;20.10;71.54
48624;BME280;34422;45.802;16.114;2022-08-07T03:01:22;100549.56;;;20.10;71.25
48624;BME280;34422;45.802;16.114;2022-08-07T03:03:50;100542.41;;;20.09;70.90
48624;BME280;34422;45.802;16.114;2022-08-07T03:06:19;100549.56;;;20.10;70.58
48624;BME280;34422;45.802;16.114;2022-08-07T03:08:48;100536.91;;;20.09;70.92
48624;BME280;34422;45.802;16.114;2022-08-07T03:11:16;100547.38;;;20.12;70.62
48624;BME280;34422;45.802;16.114;2022-08-07T03:13:43;100540.22;;;20.11;70.28
48624;BME280;34422;45.802;16.114;2022-08-07T03:16:10;100540.78;;;20.13;70.20
48624;BME280;34422;45.802;16.114;2022-08-07T03:18:37;100539.69;;;20.14;69.84
48624;BME280;34422;45.802;16.114;2022-08-07T03:21:05;100533.09;;;20.15;69.61
48624;BME280;34422;45.802;16.114;2022-08-07T03:23:35;100544.66;;;20.17;69.59
48624;BME280;34422;45.802;16.114;2022-08-07T03:26:04;100544.13;;;20.20;70.43
48624;BME280;34422;45.802;16.114;2022-08-07T03:28:32;100541.63;;;20.19;70.00
48624;BME280;34422;45.802;16.114;2022-08-07T03:31:02;100547.13;;;20.19;70.32
48624;BME280;34422;45.802;16.114;2022-08-07T03:33:52;100550.16;;;20.17;70.65
48624;BME280;34422;45.802;16.114;2022-08-07T03:36:19;100555.66;;;20.17;70.73
48624;BME280;34422;45.802;16.114;2022-08-07T03:38:47;100543.00;;;20.16;70.12
48624;BME280;34422;45.802;16.114;2022-08-07T03:41:15;100546.31;;;20.18;69.40
48624;BME280;34422;45.802;16.114;2022-08-07T03:43:43;100548.53;;;20.21;69.56
48624;BME280;34422;45.802;16.114;2022-08-07T03:46:11;100549.06;;;20.23;68.09
48624;BME280;34422;45.802;16.114;2022-08-07T03:48:39;100552.38;;;20.26;66.87
48624;BME280;34422;45.802;16.114;2022-08-07T03:51:06;100554.03;;;20.27;67.11
48624;BME280;34422;45.802;16.114;2022-08-07T03:53:36;100556.78;;;20.32;67.13
48624;BME280;34422;45.802;16.114;2022-08-07T03:56:03;100567.25;;;20.35;66.09
48624;BME280;34422;45.802;16.114;2022-08-07T03:58:30;100566.44;;;20.34;65.36
48624;BME280;34422;45.802;16.114;2022-08-07T04:00:58;100565.06;;;20.37;65.81
48624;BME280;34422;45.802;16.114;2022-08-07T04:03:26;100578.28;;;20.40;65.12
48624;BME280;34422;45.802;16.114;2022-08-07T04:05:53;100573.88;;;20.39;64.99
48624;BME280;34422;45.802;16.114;2022-08-07T04:08:20;100579.38;;;20.39;64.59
48624;BME280;34422;45.802;16.114;2022-08-07T04:10:47;100583.81;;;20.45;63.50
48624;BME280;34422;45.802;16.114;2022-08-07T04:13:14;100586.81;;;20.43;64.16
48624;BME280;34422;45.802;16.114;2022-08-07T04:15:42;100591.50;;;20.43;63.92
48624;BME280;34422;45.802;16.114;2022-08-07T04:18:11;100584.34;;;20.42;63.59
48624;BME280;34422;45.802;16.114;2022-08-07T04:20:39;100585.44;;;20.41;63.71
48624;BME280;34422;45.802;16.114;2022-08-07T04:23:08;100590.41;;;20.44;64.65
48624;BME280;34422;45.802;16.114;2022-08-07T04:25:35;100591.50;;;20.43;64.18
48624;BME280;34422;45.802;16.114;2022-08-07T04:28:05;100597.00;;;20.43;64.20
48624;BME280;34422;45.802;16.114;2022-08-07T04:30:33;100588.19;;;20.41;64.45
48624;BME280;34422;45.802;16.114;2022-08-07T04:33:06;100583.50;;;20.41;64.39
48624;BME280;34422;45.802;16.114;2022-08-07T04:35:37;100589.25;;;20.35;64.60
48624;BME280;34422;45.802;16.114;2022-08-07T04:38:08;100581.56;;;20.37;64.91
48624;BME280;34422;45.802;16.114;2022-08-07T04:40:39;100588.41;;;20.34;65.27
48624;BME280;34422;45.802;16.114;2022-08-07T04:43:07;100581.81;;;20.35;65.42
48624;BME280;34422;45.802;16.114;2022-08-07T04:45:41;100590.34;;;20.34;65.08
48624;BME280;34422;45.802;16.114;2022-08-07T04:48:17;100588.19;;;20.36;65.51
48624;BME280;34422;45.802;16.114;2022-08-07T04:50:59;100594.22;;;20.38;65.49
48624;BME280;34422;45.802;16.114;2022-08-07T04:53:36;100595.34;;;20.42;65.02
48624;BME280;34422;45.802;16.114;2022-08-07T04:56:19;100600.28;;;20.45;65.39
48624;BME280;34422;45.802;16.114;2022-08-07T04:59:01;100607.75;;;20.49;64.67
48624;BME280;34422;45.802;16.114;2022-08-07T05:01:48;100604.13;;;20.44;64.80
48624;BME280;34422;45.802;16.114;2022-08-07T05:04:53;100599.47;;;20.44;64.67
48624;BME280;34422;45.802;16.114;2022-08-07T05:07:26;100615.69;;;20.46;65.42
48624;BME280;34422;45.802;16.114;2022-08-07T05:15:20;100606.13;;;20.58;65.59
48624;BME280;34422;45.802;16.114;2022-08-07T05:17:53;100604.19;;;20.64;64.24
48624;BME280;34422;45.802;16.114;2022-08-07T05:20:52;100606.97;;;20.69;64.54
48624;BME280;34422;45.802;16.114;2022-08-07T05:23:23;100602.56;;;20.78;64.34
48624;BME280;34422;45.802;16.114;2022-08-07T05:25:51;100596.03;;;20.89;63.76
48624;BME280;34422;45.802;16.114;2022-08-07T05:28:19;100602.63;;;21.04;63.64
48624;BME280;34422;45.802;16.114;2022-08-07T05:30:47;100602.34;;;21.00;62.66
48624;BME280;34422;45.802;16.114;2022-08-07T05:33:15;100604.84;;;21.02;63.19
48624;BME280;34422;45.802;16.114;2022-08-07T05:35:43;100609.19;;;20.92;63.61
48624;BME280;34422;45.802;16.114;2022-08-07T05:38:11;100611.94;;;20.92;64.05
48624;BME280;34422;45.802;16.114;2022-08-07T05:40:39;100616.09;;;20.90;63.82
48624;BME280;34422;45.802;16.114;2022-08-07T05:43:06;100621.31;;;20.91;63.35
48624;BME280;34422;45.802;16.114;2022-08-07T05:45:33;100614.41;;;20.84;63.13
48624;BME280;34422;45.802;16.114;2022-08-07T05:48:01;100619.09;;;20.83;63.07
48624;BME280;34422;45.802;16.114;2022-08-07T05:50:29;100618.56;;;20.86;63.63
48624;BME280;34422;45.802;16.114;2022-08-07T05:52:56;100621.31;;;20.91;63.65
48624;BME280;34422;45.802;16.114;2022-08-07T05:55:24;100625.47;;;20.99;63.67
48624;BME280;34422;45.802;16.114;2022-08-07T05:57:51;100627.38;;;20.99;63.61
48624;BME280;34422;45.802;16.114;2022-08-07T06:00:20;100627.38;;;20.99;63.31
48624;BME280;34422;45.802;16.114;2022-08-07T06:02:49;100619.16;;;21.04;63.35
48624;BME280;34422;45.802;16.114;2022-08-07T06:05:19;100618.03;;;21.05;63.61
48624;BME280;34422;45.802;16.114;2022-08-07T06:07:47;100624.66;;;21.14;63.57
48624;BME280;34422;45.802;16.114;2022-08-07T06:10:14;100625.19;;;21.11;63.12
48624;BME280;34422;45.802;16.114;2022-08-07T06:12:41;100630.72;;;21.21;62.71
48624;BME280;34422;45.802;16.114;2022-08-07T06:15:13;100618.91;;;21.20;62.45
48624;BME280;34422;45.802;16.114;2022-08-07T06:17:42;100620.25;;;21.13;62.91
48624;BME280;34422;45.802;16.114;2022-08-07T06:20:09;100620.81;;;21.15;62.64
48624;BME280;34422;45.802;16.114;2022-08-07T06:22:38;100630.75;;;21.26;62.06
48624;BME280;34422;45.802;16.114;2022-08-07T06:25:06;100631.84;;;21.25;62.01
48624;BME280;34422;45.802;16.114;2022-08-07T06:27:33;100630.75;;;21.41;61.81
48624;BME280;34422;45.802;16.114;2022-08-07T06:30:00;100636.25;;;21.46;61.51
48624;BME280;34422;45.802;16.114;2022-08-07T06:32:27;100637.63;;;21.54;60.93
48624;BME280;34422;45.802;16.114;2022-08-07T06:34:53;100640.09;;;21.60;60.78
48624;BME280;34422;45.802;16.114;2022-08-07T06:37:20;100646.19;;;21.57;60.53
48624;BME280;34422;45.802;16.114;2022-08-07T06:39:47;100647.81;;;21.48;60.83
48624;BME280;34422;45.802;16.114;2022-08-07T06:42:17;100648.09;;;21.52;60.14
48624;BME280;34422;45.802;16.114;2022-08-07T06:44:46;100640.09;;;21.60;60.58
48624;BME280;34422;45.802;16.114;2022-08-07T06:47:14;100652.78;;;21.72;60.17
48624;BME280;34422;45.802;16.114;2022-08-07T06:49:42;100649.44;;;21.59;60.24
48624;BME280;34422;45.802;16.114;2022-08-07T06:52:11;100650.28;;;21.70;60.84
48624;BME280;34422;45.802;16.114;2022-08-07T06:54:40;100654.44;;;21.73;60.84
48624;BME280;34422;45.802;16.114;2022-08-07T06:57:08;100650.56;;;21.63;60.71
48624;BME280;34422;45.802;16.114;2022-08-07T06:59:40;100664.31;;;21.74;61.48
48624;BME280;34422;45.802;16.114;2022-08-07T07:02:14;100653.59;;;21.62;60.55
48624;BME280;34422;45.802;16.114;2022-08-07T07:04:44;100648.34;;;21.66;60.18
48624;BME280;34422;45.802;16.114;2022-08-07T07:07:11;100652.47;;;21.73;60.84
48624;BME280;34422;45.802;16.114;2022-08-07T07:09:44;100653.03;;;21.75;60.90
48624;BME280;34422;45.802;16.114;2022-08-07T07:15:19;100648.34;;;21.76;61.02
48624;BME280;34422;45.802;16.114;2022-08-07T07:18:13;100651.66;;;21.68;60.82
48624;BME280;34422;45.802;16.114;2022-08-07T07:21:05;100646.69;;;21.64;61.36
48624;BME280;34422;45.802;16.114;2022-08-07T07:23:33;100646.16;;;21.62;60.80
48624;BME280;34422;45.802;16.114;2022-08-07T07:26:04;100648.34;;;21.66;60.66
48624;BME280;34422;45.802;16.114;2022-08-07T07:28:51;100648.34;;;21.81;61.25
48624;BME280;34422;45.802;16.114;2022-08-07T07:31:22;100651.34;;;21.89;60.70
48624;BME280;34422;45.802;16.114;2022-08-07T07:33:55;100646.41;;;21.76;60.89
48624;BME280;34422;45.802;16.114;2022-08-07T07:36:23;100646.69;;;21.80;60.33
48624;BME280;34422;45.802;16.114;2022-08-07T07:38:51;100639.81;;;21.62;60.78
48624;BME280;34422;45.802;16.114;2022-08-07T07:41:20;100641.75;;;21.82;60.54
48624;BME280;34422;45.802;16.114;2022-08-07T07:43:49;100638.16;;;21.81;61.40
48624;BME280;34422;45.802;16.114;2022-08-07T07:46:17;100638.16;;;21.76;60.66
48624;BME280;34422;45.802;16.114;2022-08-07T07:48:45;100642.84;;;21.66;60.77
48624;BME280;34422;45.802;16.114;2022-08-07T07:51:14;100642.28;;;21.79;61.51
48624;BME280;34422;45.802;16.114;2022-08-07T07:53:44;100632.91;;;21.80;60.32
48624;BME280;34422;45.802;16.114;2022-08-07T07:56:12;100639.25;;;21.75;61.17
48624;BME280;34422;45.802;16.114;2022-08-07T07:58:39;100632.38;;;21.83;61.09
48624;BME280;34422;45.802;16.114;2022-08-07T08:01:09;100640.09;;;21.81;60.79
48624;BME280;34422;45.802;16.114;2022-08-07T08:03:37;100632.38;;;21.83;60.30
48624;BME280;34422;45.802;16.114;2022-08-07T08:06:05;100640.59;;;21.93;60.11
48624;BME280;34422;45.802;16.114;2022-08-07T08:08:35;100637.31;;;22.01;60.43
48624;BME280;34422;45.802;16.114;2022-08-07T08:11:04;100638.44;;;22.00;59.97
48624;BME280;34422;45.802;16.114;2022-08-07T08:13:33;100641.16;;;21.95;60.64
48624;BME280;34422;45.802;16.114;2022-08-07T08:16:02;100632.34;;;22.03;60.54
48624;BME280;34422;45.802;16.114;2022-08-07T08:18:30;100631.78;;;22.11;60.63
48624;BME280;34422;45.802;16.114;2022-08-07T08:21:00;100621.22;;;22.33;59.65
48624;BME280;34422;45.802;16.114;2022-08-07T08:23:29;100631.13;;;22.40;59.15
48624;BME280;34422;45.802;16.114;2022-08-07T08:26:16;100626.44;;;22.40;58.91
48624;BME280;34422;45.802;16.114;2022-08-07T08:29:03;100633.84;;;22.50;59.92
48624;BME280;34422;45.802;16.114;2022-08-07T08:31:33;100638.75;;;22.58;57.85
48624;BME280;34422;45.802;16.114;2022-08-07T08:34:04;100630.19;;;22.64;58.16
48624;BME280;34422;45.802;16.114;2022-08-07T08:36:33;100640.84;;;22.86;58.20
48624;BME280;34422;45.802;16.114;2022-08-07T08:39:02;100639.97;;;22.96;57.49
48624;BME280;34422;45.802;16.114;2022-08-07T08:41:38;100638.53;;;23.03;56.29
48624;BME280;34422;45.802;16.114;2022-08-07T08:44:16;100633.56;;;23.06;57.41
48624;BME280;34422;45.802;16.114;2022-08-07T08:47:13;100633.00;;;23.09;57.06
48624;BME280;34422;45.802;16.114;2022-08-07T08:49:54;100637.34;;;23.15;56.57
48624;BME280;34422;45.802;16.114;2022-08-07T08:52:27;100628.69;;;23.26;55.69
48624;BME280;34422;45.802;16.114;2022-08-07T08:55:01;100631.75;;;23.25;55.77
48624;BME280;34422;45.802;16.114;2022-08-07T08:57:37;100634.56;;;23.20;56.50
48624;BME280;34422;45.802;16.114;2022-08-07T09:00:09;100632.25;;;23.32;55.87
48624;BME280;34422;45.802;16.114;2022-08-07T09:05:47;100627.09;;;23.59;55.72
48624;BME280;34422;45.802;16.114;2022-08-07T09:08:51;100628.91;;;23.98;54.89
48624;BME280;34422;45.802;16.114;2022-08-07T09:11:34;100632.47;;;24.27;54.48
48624;BME280;34422;45.802;16.114;2022-08-07T09:14:19;100625.69;;;24.38;52.52
48624;BME280;34422;45.802;16.114;2022-08-07T09:17:24;100617.88;;;24.46;52.64
48624;BME280;34422;45.802;16.114;2022-08-07T09:19:59;100634.25;;;24.42;52.57
48624;BME280;34422;45.802;16.114;2022-08-07T09:22:43;100631.19;;;24.43;52.35
48624;BME280;34422;45.802;16.114;2022-08-07T09:25:22;100632.84;;;24.63;51.54
48624;BME280;34422;45.802;16.114;2022-08-07T09:28:09;100622.31;;;24.84;51.28
48624;BME280;34422;45.802;16.114;2022-08-07T09:36:25;100620.00;;;24.91;51.46
48624;BME280;34422;45.802;16.114;2022-08-07T09:50:03;100586.25;;;25.27;50.62
48624;BME280;34422;45.802;16.114;2022-08-07T09:58:03;100584.56;;;25.12;50.56
48624;BME280;34422;45.802;16.114;2022-08-07T10:04:21;100577.72;;;25.23;50.58
48624;BME280;34422;45.802;16.114;2022-08-07T10:07:17;100571.47;;;25.31;49.94
48624;BME280;34422;45.802;16.114;2022-08-07T10:10:09;100568.25;;;25.57;50.09
48624;BME280;34422;45.802;16.114;2022-08-07T10:12:52;100577.44;;;25.71;49.68
48624;BME280;34422;45.802;16.114;2022-08-07T10:24:03;100556.94;;;25.85;49.77
48624;BME280;34422;45.802;16.114;2022-08-07T10:29:24;100550.38;;;26.36;48.54
48624;BME280;34422;45.802;16.114;2022-08-07T10:31:56;100552.06;;;26.60;48.71
48624;BME280;34422;45.802;16.114;2022-08-07T10:38:05;100547.72;;;27.03;46.85
48624;BME280;34422;45.802;16.114;2022-08-07T10:40:49;100537.69;;;26.80;47.86
48624;BME280;34422;45.802;16.114;2022-08-07T10:43:29;100541.91;;;26.41;47.79
48624;BME280;34422;45.802;16.114;2022-08-07T10:46:09;100541.31;;;26.17;48.21
48624;BME280;34422;45.802;16.114;2022-08-07T10:48:48;100542.59;;;26.61;47.48
48624;BME280;34422;45.802;16.114;2022-08-07T11:05:15;100516.38;;;26.89;46.87
48624;BME280;34422;45.802;16.114;2022-08-07T11:10:54;100519.28;;;26.84;47.31
48624;BME280;34422;45.802;16.114;2022-08-07T11:16:09;100514.75;;;27.10;47.33
48624;BME280;34422;45.802;16.114;2022-08-07T11:21:38;100511.31;;;27.05;47.76
48624;BME280;34422;45.802;16.114;2022-08-07T11:24:14;100506.69;;;27.00;47.47
48624;BME280;34422;45.802;16.114;2022-08-07T11:26:45;100504.97;;;26.90;47.81
48624;BME280;34422;45.802;16.114;2022-08-07T11:29:46;100492.38;;;27.38;46.78
48624;BME280;34422;45.802;16.114;2022-08-07T11:32:19;100498.56;;;27.35;47.12
48624;BME280;34422;45.802;16.114;2022-08-07T11:35:14;100496.50;;;27.49;46.48
48624;BME280;34422;45.802;16.114;2022-08-07T11:43:29;100482.16;;;27.55;46.77
48624;BME280;34422;45.802;16.114;2022-08-07T11:55:58;100479.16;;;28.48;44.46
48624;BME280;34422;45.802;16.114;2022-08-07T12:12:54;100461.22;;;28.06;46.41
48624;BME280;34422;45.802;16.114;2022-08-07T12:15:28;100455.47;;;27.85;46.43
48624;BME280;34422;45.802;16.114;2022-08-07T12:18:18;100451.69;;;27.81;45.97
48624;BME280;34422;45.802;16.114;2022-08-07T12:21:25;100442.22;;;27.82;46.93
48624;BME280;34422;45.802;16.114;2022-08-07T12:30:55;100448.63;;;28.17;45.36
48624;BME280;34422;45.802;16.114;2022-08-07T12:34:07;100453.28;;;28.39;45.45
48624;BME280;34422;45.802;16.114;2022-08-07T12:38:12;100444.28;;;28.42;45.11
48624;BME280;34422;45.802;16.114;2022-08-07T12:44:30;100437.91;;;28.50;45.80
48624;BME280;34422;45.802;16.114;2022-08-07T13:18:03;100399.00;;;27.76;47.24
48624;BME280;34422;45.802;16.114;2022-08-07T13:21:20;100390.84;;;27.71;47.32
48624;BME280;34422;45.802;16.114;2022-08-07T13:30:07;100394.19;;;28.42;46.58
48624;BME280;34422;45.802;16.114;2022-08-07T13:33:11;100379.94;;;28.35;46.99
48624;BME280;34422;45.802;16.114;2022-08-07T13:36:03;100387.28;;;28.14;46.63
48624;BME280;34422;45.802;16.114;2022-08-07T13:46:02;100363.38;;;27.95;47.61
48624;BME280;34422;45.802;16.114;2022-08-07T13:48:36;100356.56;;;28.27;47.25
48624;BME280;34422;45.802;16.114;2022-08-07T13:51:07;100353.25;;;28.34;46.22
48624;BME280;34422;45.802;16.114;2022-08-07T13:54:01;100348.00;;;28.33;46.57
48624;BME280;34422;45.802;16.114;2022-08-07T13:56:35;100338.84;;;28.32;47.18
48624;BME280;34422;45.802;16.114;2022-08-07T13:59:07;100340.47;;;28.50;47.42
48624;BME280;34422;45.802;16.114;2022-08-07T14:06:20;100330.81;;;28.39;46.67
48624;BME280;34422;45.802;16.114;2022-08-07T14:34:04;100309.19;;;28.45;46.72
48624;BME280;34422;45.802;16.114;2022-08-07T14:41:06;100303.38;;;28.76;46.89
48624;BME280;34422;45.802;16.114;2022-08-07T14:44:06;100296.53;;;28.64;46.05
48624;BME280;34422;45.802;16.114;2022-08-07T14:46:56;100296.72;;;28.59;46.35
48624;BME280;34422;45.802;16.114;2022-08-07T14:49:34;100288.34;;;28.59;46.70
48624;BME280;34422;45.802;16.114;2022-08-07T14:52:53;100283.47;;;28.48;46.24
48624;BME280;34422;45.802;16.114;2022-08-07T14:56:10;100285.31;;;28.35;46.76
48624;BME280;34422;45.802;16.114;2022-08-07T14:59:05;100289.09;;;28.39;46.73
48624;BME280;34422;45.802;16.114;2022-08-07T15:01:47;100286.09;;;28.44;46.89
48624;BME280;34422;45.802;16.114;2022-08-07T15:04:48;100279.75;;;28.35;47.13
48624;BME280;34422;45.802;16.114;2022-08-07T15:07:47;100288.94;;;28.27;47.47
48624;BME280;34422;45.802;16.114;2022-08-07T15:10:20;100282.41;;;28.23;47.49
48624;BME280;34422;45.802;16.114;2022-08-07T15:12:50;100278.31;;;28.29;47.85
48624;BME280;34422;45.802;16.114;2022-08-07T15:15:45;100278.31;;;28.29;47.32
48624;BME280;34422;45.802;16.114;2022-08-07T15:18:29;100276.16;;;28.17;47.87
48624;BME280;34422;45.802;16.114;2022-08-07T15:21:03;100285.47;;;28.30;47.97
48624;BME280;34422;45.802;16.114;2022-08-07T15:23:32;100279.63;;;28.23;47.72
48624;BME280;34422;45.802;16.114;2022-08-07T15:26:00;100282.41;;;28.23;47.67
48624;BME280;34422;45.802;16.114;2022-08-07T15:28:28;100282.72;;;28.21;48.07
48624;BME280;34422;45.802;16.114;2022-08-07T15:31:01;100274.38;;;28.13;47.67
48624;BME280;34422;45.802;16.114;2022-08-07T15:33:28;100273.22;;;28.14;48.07
48624;BME280;34422;45.802;16.114;2022-08-07T15:35:56;100285.34;;;28.09;48.09
48624;BME280;34422;45.802;16.114;2022-08-07T15:38:27;100279.63;;;28.14;48.43
48624;BME280;34422;45.802;16.114;2022-08-07T15:40:54;100283.38;;;28.10;47.97
48624;BME280;34422;45.802;16.114;2022-08-07T15:43:24;100285.00;;;28.11;48.18
48624;BME280;34422;45.802;16.114;2022-08-07T15:45:55;100285.50;;;28.13;47.61
48624;BME280;34422;45.802;16.114;2022-08-07T15:48:32;100283.53;;;28.13;48.10
48624;BME280;34422;45.802;16.114;2022-08-07T15:51:06;100273.38;;;28.09;48.42
48624;BME280;34422;45.802;16.114;2022-08-07T15:53:39;100274.03;;;28.06;47.98
48624;BME280;34422;45.802;16.114;2022-08-07T15:56:08;100266.69;;;28.10;47.73
48624;BME280;34422;45.802;16.114;2022-08-07T16:01:20;100266.34;;;28.11;47.99
48624;BME280;34422;45.802;16.114;2022-08-07T16:03:50;100266.03;;;28.13;48.00
48624;BME280;34422;45.802;16.114;2022-08-07T16:06:51;100271.09;;;28.11;47.53
48624;BME280;34422;45.802;16.114;2022-08-07T16:09:28;100267.16;;;28.12;48.19
48624;BME280;34422;45.802;16.114;2022-08-07T16:12:32;100261.28;;;28.13;48.88
48624;BME280;34422;45.802;16.114;2022-08-07T16:23:26;100272.25;;;27.84;49.01
48624;BME280;34422;45.802;16.114;2022-08-07T16:26:18;100271.25;;;27.63;49.40
48624;BME280;34422;45.802;16.114;2022-08-07T16:29:20;100272.38;;;27.53;49.47
48624;BME280;34422;45.802;16.114;2022-08-07T16:32:29;100274.66;;;27.51;50.17
48624;BME280;34422;45.802;16.114;2022-08-07T16:34:49;100265.69;;;27.45;49.71
48624;BME280;34422;45.802;16.114;2022-08-07T16:40:32;100273.03;;;27.50;50.02
48624;BME280;34422;45.802;16.114;2022-08-07T16:46:28;100272.69;;;27.43;49.78